KGNT/GNT METAR and TAF weather

Enter ICAO airport designator
Station Type Date Time Source
KGNT METAR 2022/01/27 22:35 UTC NOAA

KGNT 272235Z AUTO 02010G15KT 10SM CLR 06/M10 A3016 RMK AO2 T00561097


Station Type Date Time Source
KGNT Decoded METAR 2022/01/27 22:35 UTC NOAA

GRANTS-MILAN MUNICIPAL AIRPORT , NM, United States (KGNT) 35-10N 107-54W 1987M
Jan 27, 2022 - 05:35 PM EST / 2022.01.27 2235 UTC
Wind: from the NNE (020 degrees) at 12 MPH (10 KT) gusting to 17 MPH (15 KT):0
Visibility: 10 mile(s):0
Sky conditions: clear
Temperature: 42.1 F (5.6 C)
Dew Point: 14.5 F (-9.7 C)
Relative Humidity: 32%
Pressure (altimeter): 30.16 in. Hg (1021 hPa)
ob: KGNT 272235Z AUTO 02010G15KT 10SM CLR 06/M10 A3016 RMK AO2 T00561097
cycle: 22

Station Type Date Time Source
KGNT TAF UTC NOAA

Error!

Example: see airport list